createdAt,value
2023-03-05T00:01:24.874Z,5.70
2023-03-05T00:03:54.102Z,5.60
2023-03-05T00:06:23.762Z,5.60
2023-03-05T00:08:55.043Z,6.00
2023-03-05T00:11:21.809Z,6.20
2023-03-05T00:13:52.044Z,6.20
2023-03-05T00:16:20.047Z,6.40
2023-03-05T00:18:47.090Z,6.30
2023-03-05T00:21:35.832Z,6.10
2023-03-05T00:24:06.732Z,5.90
2023-03-05T00:26:37.203Z,5.70
2023-03-05T00:29:05.430Z,5.70
2023-03-05T00:31:34.262Z,5.80
2023-03-05T00:34:05.997Z,5.90
2023-03-05T00:36:33.163Z,6.40
2023-03-05T00:39:00.240Z,6.10
2023-03-05T00:41:27.739Z,6.00
2023-03-05T00:43:54.554Z,6.20
2023-03-05T00:46:21.737Z,6.00
2023-03-05T00:48:48.702Z,5.90
2023-03-05T00:51:15.541Z,5.90
2023-03-05T00:53:42.284Z,5.80
2023-03-05T00:56:09.204Z,6.20
2023-03-05T00:58:35.985Z,6.20
2023-03-05T01:01:03.984Z,6.10
2023-03-05T01:03:33.392Z,5.90
2023-03-05T01:06:01.390Z,6.00
2023-03-05T01:08:28.563Z,6.00
2023-03-05T01:10:55.448Z,6.40
2023-03-05T01:13:22.263Z,6.40
2023-03-05T01:15:50.956Z,6.40
2023-03-05T01:18:19.250Z,5.90
2023-03-05T01:20:46.246Z,5.80
2023-03-05T01:23:13.129Z,5.70
2023-03-05T01:25:40.003Z,5.50
2023-03-05T01:28:07.199Z,5.70
2023-03-05T01:30:34.732Z,4.90
2023-03-05T01:33:02.175Z,4.90
2023-03-05T01:35:29.471Z,5.30
2023-03-05T01:37:56.637Z,4.50
2023-03-05T01:40:30.046Z,4.40
2023-03-05T01:43:11.735Z,4.20
2023-03-05T01:45:59.753Z,4.60
2023-03-05T01:48:27.187Z,4.70
2023-03-05T01:50:54.291Z,5.30
2023-03-05T01:53:21.046Z,4.40
2023-03-05T01:55:47.862Z,4.10
2023-03-05T01:58:14.690Z,4.20
2023-03-05T02:00:48.533Z,4.40
2023-03-05T02:03:15.455Z,4.80
2023-03-05T02:05:44.401Z,4.90
2023-03-05T02:08:15.993Z,4.90
2023-03-05T02:10:49.466Z,4.90
2023-03-05T02:13:29.592Z,4.50
2023-03-05T02:16:00.052Z,4.70
2023-03-05T02:18:27.287Z,4.60
2023-03-05T02:20:57.121Z,4.70
2023-03-05T02:23:36.846Z,4.80
2023-03-05T02:26:10.403Z,4.70
2023-03-05T02:28:46.434Z,4.80
2023-03-05T02:31:23.798Z,5.10
2023-03-05T02:33:59.853Z,4.90
2023-03-05T02:36:26.927Z,5.00
2023-03-05T02:38:53.950Z,4.90
2023-03-05T02:41:20.782Z,5.20
2023-03-05T02:43:47.573Z,5.50
2023-03-05T02:46:14.441Z,5.20
2023-03-05T02:48:41.205Z,5.60
2023-03-05T02:51:09.147Z,5.40
2023-03-05T02:53:36.108Z,5.30
2023-03-05T02:56:03.464Z,5.30
2023-03-05T02:58:30.281Z,5.10
2023-03-05T03:00:57.072Z,5.40
2023-03-05T03:03:24.004Z,5.20
2023-03-05T03:05:50.779Z,5.50
2023-03-05T03:08:17.546Z,5.60
2023-03-05T03:10:44.304Z,5.70
2023-03-05T03:13:11.088Z,5.60
2023-03-05T03:15:39.236Z,5.80
2023-03-05T03:18:06.469Z,5.70
2023-03-05T03:20:34.803Z,5.80
2023-03-05T03:23:01.928Z,5.90
2023-03-05T03:25:28.706Z,6.00
2023-03-05T03:27:55.515Z,5.80
2023-03-05T03:30:22.315Z,5.70
2023-03-05T03:32:51.051Z,5.40
2023-03-05T03:35:18.216Z,5.40
2023-03-05T03:37:45.012Z,5.40
2023-03-05T03:40:12.338Z,5.60
2023-03-05T03:42:39.134Z,5.60
2023-03-05T03:45:06.796Z,6.00
2023-03-05T03:47:33.582Z,6.00
2023-03-05T03:50:00.344Z,6.10
2023-03-05T03:52:27.198Z,6.30
2023-03-05T03:54:55.693Z,6.20
2023-03-05T03:57:22.666Z,6.10
2023-03-05T03:59:50.286Z,6.00
2023-03-05T04:02:17.639Z,6.00
2023-03-05T04:04:44.526Z,6.10
2023-03-05T04:07:11.388Z,5.50
2023-03-05T04:09:38.500Z,5.20
2023-03-05T04:12:05.479Z,5.40
2023-03-05T04:14:32.253Z,5.10
2023-03-05T04:16:58.993Z,4.60
2023-03-05T04:19:25.832Z,4.70
2023-03-05T04:21:52.581Z,5.20
2023-03-05T04:24:19.320Z,5.60
2023-03-05T04:26:46.053Z,5.70
2023-03-05T04:29:12.823Z,5.20
2023-03-05T04:31:39.602Z,5.20
2023-03-05T04:34:06.428Z,5.20
2023-03-05T04:36:33.206Z,5.40
2023-03-05T04:39:00.003Z,5.60
2023-03-05T04:41:26.926Z,5.70
2023-03-05T04:43:53.734Z,5.80
2023-03-05T04:46:20.542Z,5.40
2023-03-05T04:48:47.568Z,5.00
2023-03-05T04:51:14.277Z,4.80
2023-03-05T04:53:41.043Z,5.10
2023-03-05T04:56:08.015Z,5.30
2023-03-05T04:58:34.744Z,5.20
2023-03-05T05:01:03.954Z,5.10
2023-03-05T05:03:31.166Z,5.30
2023-03-05T05:06:00.115Z,5.60
2023-03-05T05:08:28.136Z,5.70
2023-03-05T05:11:04.292Z,5.90
2023-03-05T05:13:32.261Z,6.00
2023-03-05T05:15:59.443Z,6.00
2023-03-05T05:18:26.526Z,6.10
2023-03-05T05:20:53.291Z,6.00
2023-03-05T05:23:20.115Z,6.00
2023-03-05T05:25:46.950Z,6.10
2023-03-05T05:28:13.762Z,6.20
2023-03-05T05:30:40.559Z,6.30
2023-03-05T05:33:07.354Z,6.40
2023-03-05T05:35:39.465Z,6.50
2023-03-05T05:38:06.237Z,6.50
2023-03-05T05:40:32.986Z,6.30
2023-03-05T05:42:59.757Z,6.50
2023-03-05T05:45:26.676Z,6.60
2023-03-05T05:47:53.705Z,6.50
2023-03-05T05:50:21.074Z,6.30
2023-03-05T05:52:47.851Z,6.20
2023-03-05T05:55:16.146Z,6.20
2023-03-05T05:57:42.927Z,6.50
2023-03-05T06:00:13.029Z,6.60
2023-03-05T06:02:42.028Z,6.50
2023-03-05T06:05:13.257Z,6.50
2023-03-05T06:07:40.050Z,6.50
2023-03-05T06:10:08.504Z,6.00
2023-03-05T06:12:35.245Z,6.10
2023-03-05T06:15:01.978Z,6.10
2023-03-05T06:17:31.055Z,6.00
2023-03-05T06:19:58.932Z,5.60
2023-03-05T06:22:25.876Z,5.30
2023-03-05T06:24:52.696Z,5.30
2023-03-05T06:27:19.510Z,5.10
2023-03-05T06:29:46.266Z,5.20
2023-03-05T06:32:13.023Z,5.50
2023-03-05T06:34:39.764Z,5.10
2023-03-05T06:37:07.240Z,4.60
2023-03-05T06:39:34.062Z,4.60
2023-03-05T06:42:00.831Z,4.50
2023-03-05T06:44:27.634Z,4.70
2023-03-05T06:46:54.584Z,4.90
2023-03-05T06:49:21.464Z,4.10
2023-03-05T06:51:48.375Z,4.10
2023-03-05T06:54:17.493Z,4.30
2023-03-05T06:56:46.664Z,4.30
2023-03-05T06:59:16.005Z,4.40
2023-03-05T07:01:44.925Z,4.60
2023-03-05T07:04:13.050Z,4.60
2023-03-05T07:06:42.105Z,4.40
2023-03-05T07:09:13.414Z,4.40
2023-03-05T07:11:40.490Z,4.30
2023-03-05T07:14:07.642Z,4.50
2023-03-05T07:16:35.165Z,4.50
2023-03-05T07:19:06.376Z,4.70
2023-03-05T07:21:35.967Z,4.70
2023-03-05T07:24:05.304Z,4.80
2023-03-05T07:26:33.548Z,5.00
2023-03-05T07:29:01.594Z,5.00
2023-03-05T07:31:31.700Z,4.90
2023-03-05T07:34:01.738Z,4.80
2023-03-05T07:36:29.241Z,5.00
2023-03-05T07:38:56.270Z,5.40
2023-03-05T07:41:23.701Z,5.30
2023-03-05T07:43:53.785Z,5.20
2023-03-05T07:46:25.259Z,5.30
2023-03-05T07:48:54.515Z,5.30
2023-03-05T07:51:22.981Z,5.50
2023-03-05T07:53:51.935Z,5.70
2023-03-05T07:56:24.471Z,6.00
2023-03-05T07:58:51.375Z,6.20
2023-03-05T08:01:18.200Z,6.00
2023-03-05T08:03:45.110Z,6.20
2023-03-05T08:06:12.878Z,6.40
2023-03-05T08:08:39.832Z,6.40
2023-03-05T08:11:11.214Z,6.80
2023-03-05T08:13:38.540Z,6.70
2023-03-05T08:16:12.829Z,6.30
2023-03-05T08:18:39.777Z,5.90
2023-03-05T08:21:07.052Z,5.90
2023-03-05T08:23:34.543Z,6.10
2023-03-05T08:26:01.461Z,6.20
2023-03-05T08:28:28.532Z,6.40
2023-03-05T08:30:55.308Z,6.30
2023-03-05T08:33:22.083Z,6.40
2023-03-05T08:35:48.864Z,6.40
2023-03-05T08:38:15.631Z,6.60
2023-03-05T08:40:43.233Z,6.70
2023-03-05T08:43:10.041Z,6.80
2023-03-05T08:45:39.052Z,6.80
2023-03-05T08:48:06.119Z,6.80
2023-03-05T08:50:32.878Z,6.90
2023-03-05T08:53:00.140Z,6.50
2023-03-05T08:55:26.925Z,6.70
2023-03-05T08:57:53.702Z,6.90
2023-03-05T09:00:20.790Z,7.30
2023-03-05T09:02:47.587Z,7.00
2023-03-05T09:05:14.469Z,7.10
2023-03-05T09:07:41.356Z,7.30
2023-03-05T09:10:11.399Z,7.20
2023-03-05T09:12:38.150Z,7.20
2023-03-05T09:15:09.666Z,7.00
2023-03-05T09:17:41.884Z,7.10
2023-03-05T09:20:13.899Z,7.10
2023-03-05T09:22:41.284Z,7.00
2023-03-05T09:25:10.448Z,7.10
2023-03-05T09:27:38.500Z,7.50
2023-03-05T09:30:07.082Z,7.10
2023-03-05T09:32:33.912Z,7.30
2023-03-05T09:35:00.998Z,7.00
2023-03-05T09:37:29.302Z,7.20
2023-03-05T09:39:57.382Z,7.50
2023-03-05T09:42:35.900Z,7.40
2023-03-05T09:45:27.112Z,7.60
2023-03-05T09:47:57.054Z,7.60
2023-03-05T09:50:44.751Z,7.50
2023-03-05T09:53:22.057Z,7.80
2023-03-05T09:55:59.249Z,7.80
2023-03-05T09:58:49.822Z,7.70
2023-03-05T10:01:20.571Z,7.40
2023-03-05T10:04:04.392Z,7.30
2023-03-05T10:06:36.684Z,7.30
2023-03-05T10:09:41.808Z,7.50
2023-03-05T10:12:24.558Z,7.30
2023-03-05T10:14:51.390Z,7.40
2023-03-05T10:17:55.869Z,7.50
2023-03-05T10:20:58.820Z,7.80
2023-03-05T10:23:33.761Z,7.30
2023-03-05T10:26:27.807Z,7.50
2023-03-05T10:29:18.909Z,7.50
2023-03-05T10:32:23.699Z,7.40
2023-03-05T10:35:22.456Z,7.90
2023-03-05T10:38:14.898Z,7.40
2023-03-05T10:40:52.225Z,7.40
2023-03-05T10:43:51.126Z,7.70
2023-03-05T10:46:21.593Z,7.50
2023-03-05T10:48:58.601Z,7.90
2023-03-05T10:51:46.012Z,7.80
2023-03-05T10:54:25.522Z,7.90
2023-03-05T10:57:09.689Z,8.10
2023-03-05T10:59:36.538Z,8.50
2023-03-05T11:02:08.802Z,8.00
2023-03-05T11:04:39.163Z,8.30
2023-03-05T11:07:32.947Z,8.60
2023-03-05T11:10:19.117Z,8.80
2023-03-05T11:12:47.082Z,8.90
2023-03-05T11:15:13.751Z,8.50
2023-03-05T11:18:05.595Z,8.40
2023-03-05T11:20:36.180Z,8.80
2023-03-05T11:23:23.790Z,8.40
2023-03-05T11:26:00.924Z,8.10
2023-03-05T11:28:37.421Z,8.20
2023-03-05T11:31:29.408Z,8.40
2023-03-05T11:34:06.590Z,8.80
2023-03-05T11:36:42.373Z,8.60
2023-03-05T11:39:18.332Z,9.00
2023-03-05T11:41:56.488Z,8.70
2023-03-05T11:44:45.689Z,8.60
2023-03-05T11:47:42.495Z,8.30
2023-03-05T11:50:25.614Z,8.60
2023-03-05T11:52:58.315Z,8.60
2023-03-05T11:56:12.471Z,8.70
2023-03-05T11:59:12.007Z,8.90
2023-03-05T12:01:49.471Z,8.40
2023-03-05T12:04:17.550Z,8.90
2023-03-05T12:06:52.413Z,8.90
2023-03-05T12:09:53.557Z,8.50
2023-03-05T12:12:37.446Z,9.10
2023-03-05T12:15:36.799Z,9.10
2023-03-05T12:18:21.223Z,9.00
2023-03-05T12:21:15.619Z,9.20
2023-03-05T12:24:11.782Z,9.00
2023-03-05T12:27:03.177Z,8.90
2023-03-05T12:29:40.618Z,8.60
2023-03-05T12:32:22.366Z,9.10
2023-03-05T12:35:06.329Z,8.80
2023-03-05T12:37:32.945Z,8.80
2023-03-05T12:40:08.393Z,9.40
2023-03-05T12:42:35.444Z,9.30
2023-03-05T12:45:15.725Z,9.40
2023-03-05T12:47:44.793Z,9.30
2023-03-05T12:50:29.793Z,9.10
2023-03-05T12:53:15.091Z,9.50
2023-03-05T12:55:47.474Z,9.60
2023-03-05T12:58:32.071Z,9.20
2023-03-05T13:01:07.829Z,9.30
2023-03-05T13:03:40.901Z,8.90
2023-03-05T13:06:25.849Z,8.60
2023-03-05T13:09:24.138Z,8.80
2023-03-05T13:11:53.823Z,8.80
2023-03-05T13:14:41.322Z,8.90
2023-03-05T13:17:34.710Z,9.00
2023-03-05T13:20:28.853Z,9.00
2023-03-05T13:23:20.366Z,9.20
2023-03-05T13:26:20.994Z,8.90
2023-03-05T13:29:33.659Z,9.40
2023-03-05T13:32:28.400Z,9.80
2023-03-05T13:35:00.607Z,9.30
2023-03-05T13:37:36.785Z,9.60
2023-03-05T13:40:23.838Z,9.80
2023-03-05T13:42:53.248Z,9.20
2023-03-05T13:45:31.839Z,9.50
2023-03-05T13:48:05.798Z,9.80
2023-03-05T13:50:39.665Z,10.10
2023-03-05T13:53:28.323Z,9.20
2023-03-05T13:56:02.917Z,9.20
2023-03-05T13:58:49.349Z,9.60
2023-03-05T14:01:43.878Z,9.10
2023-03-05T14:04:13.798Z,8.90
2023-03-05T14:07:01.991Z,8.70
2023-03-05T14:09:40.683Z,9.00
2023-03-05T14:12:24.896Z,8.60
2023-03-05T14:14:51.726Z,8.50
2023-03-05T14:17:41.627Z,8.80
2023-03-05T14:20:23.286Z,8.90
2023-03-05T14:22:53.083Z,9.50
2023-03-05T14:25:40.173Z,9.30
2023-03-05T14:28:27.943Z,9.20
2023-03-05T14:30:56.856Z,8.70
2023-03-05T14:33:27.998Z,8.60
2023-03-05T14:35:55.768Z,9.10
2023-03-05T14:38:27.888Z,9.10
2023-03-05T14:40:54.878Z,8.60
2023-03-05T14:43:21.935Z,9.10
2023-03-05T14:45:48.870Z,9.10
2023-03-05T14:48:18.683Z,9.20
2023-03-05T14:50:51.619Z,8.80
2023-03-05T14:53:23.111Z,8.90
2023-03-05T14:55:56.575Z,9.10
2023-03-05T14:58:27.942Z,9.50
2023-03-05T15:00:55.583Z,9.70
2023-03-05T15:03:25.626Z,9.50
2023-03-05T15:05:56.369Z,9.70
2023-03-05T15:08:29.657Z,9.80
2023-03-05T15:10:56.858Z,9.80
2023-03-05T15:13:24.233Z,10.10
2023-03-05T15:15:52.645Z,10.40
2023-03-05T15:18:22.616Z,10.10
2023-03-05T15:20:52.887Z,10.50
2023-03-05T15:23:20.121Z,10.70
2023-03-05T15:25:47.336Z,10.30
2023-03-05T15:28:14.605Z,10.20
2023-03-05T15:30:47.766Z,10.10
2023-03-05T15:33:17.277Z,9.90
2023-03-05T15:35:44.686Z,9.90
2023-03-05T15:38:11.755Z,9.40
2023-03-05T15:40:38.551Z,9.30
2023-03-05T15:43:05.350Z,9.10
2023-03-05T15:45:32.253Z,9.30
2023-03-05T15:47:59.075Z,9.30
2023-03-05T15:50:26.375Z,9.20
2023-03-05T15:52:53.192Z,8.70
2023-03-05T15:55:20.748Z,8.70
2023-03-05T15:57:50.269Z,8.50
2023-03-05T16:00:25.698Z,8.40
2023-03-05T16:02:53.895Z,8.40
2023-03-05T16:05:20.915Z,8.70
2023-03-05T16:07:51.853Z,8.90
2023-03-05T16:10:25.148Z,8.90
2023-03-05T16:13:03.634Z,9.00
2023-03-05T16:15:33.072Z,9.50
2023-03-05T16:18:03.632Z,8.90
2023-03-05T16:20:30.547Z,9.00
2023-03-05T16:22:57.482Z,8.40
2023-03-05T16:25:24.257Z,8.30
2023-03-05T16:27:51.163Z,8.10
2023-03-05T16:30:18.596Z,8.10
2023-03-05T16:32:45.460Z,7.90
2023-03-05T16:35:12.487Z,8.40
2023-03-05T16:37:40.693Z,8.00
2023-03-05T16:40:10.141Z,7.50
2023-03-05T16:42:37.314Z,7.30
2023-03-05T16:45:06.753Z,7.40
2023-03-05T16:47:33.605Z,7.80
2023-03-05T16:50:00.898Z,7.80
2023-03-05T16:52:29.568Z,8.50
2023-03-05T16:54:56.318Z,8.60
2023-03-05T16:57:25.302Z,8.50
2023-03-05T16:59:54.058Z,8.40
2023-03-05T17:02:20.970Z,8.20
2023-03-05T17:04:48.867Z,8.00
2023-03-05T17:07:15.989Z,8.00
2023-03-05T17:09:44.321Z,8.00
2023-03-05T17:12:11.203Z,8.20
2023-03-05T17:14:37.981Z,8.20
2023-03-05T17:17:04.782Z,7.80
2023-03-05T17:19:32.027Z,7.80
2023-03-05T17:21:58.935Z,8.30
2023-03-05T17:24:26.219Z,8.50
2023-03-05T17:26:53.064Z,8.60
2023-03-05T17:29:19.959Z,8.60
2023-03-05T17:31:49.751Z,8.30
2023-03-05T17:34:16.780Z,8.50
2023-03-05T17:36:45.464Z,8.10
2023-03-05T17:39:13.090Z,7.90
2023-03-05T17:41:40.001Z,8.10
2023-03-05T17:44:06.921Z,8.20
2023-03-05T17:46:33.702Z,8.00
2023-03-05T17:49:00.472Z,7.70
2023-03-05T17:51:27.273Z,7.80
2023-03-05T17:53:54.043Z,7.70
2023-03-05T17:56:22.055Z,7.70
2023-03-05T17:58:49.827Z,8.10
2023-03-05T18:01:26.127Z,8.10
2023-03-05T18:03:53.108Z,8.50
2023-03-05T18:06:20.073Z,8.10
2023-03-05T18:08:46.904Z,8.40
2023-03-05T18:11:14.306Z,8.30
2023-03-05T18:13:41.899Z,8.30
2023-03-05T18:16:09.754Z,8.10
2023-03-05T18:18:36.837Z,7.90
2023-03-05T18:21:03.816Z,7.80
2023-03-05T18:23:30.653Z,7.80
2023-03-05T18:25:57.426Z,7.40
2023-03-05T18:28:25.813Z,7.20
2023-03-05T18:30:53.279Z,7.30
2023-03-05T18:33:25.052Z,7.10
2023-03-05T18:35:52.635Z,7.30
2023-03-05T18:38:25.494Z,7.40
2023-03-05T18:40:54.604Z,7.40
2023-03-05T18:43:22.754Z,7.60
2023-03-05T18:45:52.284Z,7.60
2023-03-05T18:48:19.748Z,7.60
2023-03-05T18:50:50.246Z,7.30
2023-03-05T18:53:17.422Z,7.50
2023-03-05T18:55:44.989Z,7.50
2023-03-05T18:58:15.435Z,7.70
2023-03-05T19:00:44.872Z,7.50
2023-03-05T19:03:12.730Z,7.70
2023-03-05T19:05:41.623Z,7.60
2023-03-05T19:08:08.865Z,7.40
2023-03-05T19:10:36.234Z,7.30
2023-03-05T19:13:25.315Z,7.60
2023-03-05T19:15:52.350Z,7.50
2023-03-05T19:18:20.578Z,7.60
2023-03-05T19:20:57.048Z,7.60
2023-03-05T19:23:25.271Z,7.50
2023-03-05T19:25:52.127Z,7.40
2023-03-05T19:28:19.474Z,7.40
2023-03-05T19:30:49.491Z,7.50
2023-03-05T19:33:16.329Z,7.50
2023-03-05T19:35:43.159Z,7.70
2023-03-05T19:38:10.020Z,7.60
2023-03-05T19:40:36.755Z,7.80
2023-03-05T19:43:05.534Z,7.80
2023-03-05T19:45:33.679Z,7.80
2023-03-05T19:48:01.160Z,7.80
2023-03-05T19:50:28.444Z,8.20
2023-03-05T19:52:55.176Z,8.20
2023-03-05T19:55:21.907Z,8.30
2023-03-05T19:57:48.723Z,7.90
2023-03-05T20:00:16.114Z,7.60
2023-03-05T20:02:42.893Z,7.50
2023-03-05T20:05:09.925Z,7.40
2023-03-05T20:07:36.716Z,7.40
2023-03-05T20:10:03.810Z,7.40
2023-03-05T20:12:30.631Z,7.60
2023-03-05T20:14:57.518Z,7.20
2023-03-05T20:17:24.412Z,7.30
2023-03-05T20:19:51.191Z,7.50
2023-03-05T20:22:18.138Z,7.40
2023-03-05T20:24:44.873Z,7.60
2023-03-05T20:27:11.674Z,7.70
2023-03-05T20:29:38.478Z,7.60
2023-03-05T20:32:05.346Z,7.80
2023-03-05T20:34:32.220Z,7.70
2023-03-05T20:36:59.388Z,7.60
2023-03-05T20:39:26.228Z,7.80
2023-03-05T20:41:52.987Z,7.30
2023-03-05T20:44:20.129Z,7.10
2023-03-05T20:46:59.515Z,7.10
2023-03-05T20:49:26.333Z,7.10
2023-03-05T20:51:53.069Z,7.60
2023-03-05T20:54:20.001Z,7.80
2023-03-05T20:56:47.710Z,7.70
2023-03-05T20:59:14.467Z,7.40
2023-03-05T21:01:41.309Z,7.30
2023-03-05T21:04:08.490Z,7.40
2023-03-05T21:06:36.703Z,7.50
2023-03-05T21:09:04.203Z,7.50
2023-03-05T21:11:31.945Z,7.70
2023-03-05T21:13:59.207Z,7.70
2023-03-05T21:16:27.478Z,7.70
2023-03-05T21:18:55.876Z,7.50
2023-03-05T21:21:23.095Z,7.40
2023-03-05T21:23:49.975Z,7.20
2023-03-05T21:26:16.931Z,7.30
2023-03-05T21:28:43.838Z,7.20
2023-03-05T21:31:16.560Z,7.30
2023-03-05T21:33:43.516Z,7.20
2023-03-05T21:36:10.644Z,7.20
2023-03-05T21:38:37.462Z,7.30
2023-03-05T21:41:05.452Z,7.50
2023-03-05T21:43:32.968Z,7.30
2023-03-05T21:46:01.874Z,7.10
2023-03-05T21:48:29.372Z,7.40
2023-03-05T21:50:57.145Z,7.60
2023-03-05T21:53:24.097Z,7.70
2023-03-05T21:56:03.825Z,7.50
2023-03-05T21:58:32.369Z,7.60
2023-03-05T22:00:59.658Z,7.80
2023-03-05T22:03:27.529Z,7.60
2023-03-05T22:05:55.416Z,7.40
2023-03-05T22:08:22.856Z,7.30
2023-03-05T22:10:50.274Z,7.20
2023-03-05T22:13:19.844Z,7.20
2023-03-05T22:15:55.817Z,7.30
2023-03-05T22:18:28.983Z,7.20
2023-03-05T22:20:57.770Z,7.30
2023-03-05T22:23:31.335Z,7.40
2023-03-05T22:26:05.271Z,7.20
2023-03-05T22:28:33.804Z,7.40
2023-03-05T22:31:01.013Z,7.40
2023-03-05T22:33:28.809Z,7.30
2023-03-05T22:35:55.645Z,7.50
2023-03-05T22:38:22.781Z,7.70
2023-03-05T22:40:50.658Z,7.90
2023-03-05T22:43:19.139Z,7.80
2023-03-05T22:45:46.210Z,7.60
2023-03-05T22:48:13.178Z,7.40
2023-03-05T22:50:41.753Z,7.20
2023-03-05T22:53:08.870Z,7.00
2023-03-05T22:55:40.203Z,6.90
2023-03-05T22:58:07.130Z,7.00
2023-03-05T23:00:33.907Z,7.10
2023-03-05T23:03:01.022Z,7.10
2023-03-05T23:05:27.864Z,6.90
2023-03-05T23:07:54.685Z,7.00
2023-03-05T23:10:26.966Z,7.20
2023-03-05T23:12:56.808Z,7.30
2023-03-05T23:15:33.916Z,7.20
2023-03-05T23:18:01.329Z,7.20
2023-03-05T23:20:31.927Z,7.30
2023-03-05T23:22:59.089Z,7.20
2023-03-05T23:25:30.351Z,7.20
2023-03-05T23:27:58.481Z,7.20
2023-03-05T23:30:34.571Z,7.10
2023-03-05T23:33:22.992Z,7.20
2023-03-05T23:35:56.952Z,7.40
2023-03-05T23:38:26.350Z,7.30
2023-03-05T23:40:58.529Z,7.50
2023-03-05T23:43:27.230Z,7.70
2023-03-05T23:45:57.214Z,7.40
2023-03-05T23:48:26.294Z,7.80
2023-03-05T23:50:53.656Z,7.90
2023-03-05T23:53:24.649Z,7.90
2023-03-05T23:55:52.018Z,7.60
2023-03-05T23:58:20.461Z,7.70
